Time;durP1;ratioP1;P1;durP2;ratioP2;P2;SDS_P1;SDS_P2;PMS_P1;PMS_P2;Temp;Humidity;BMP_temperature;BMP_pressure;BME280_temperature;BME280_humidity;BME280_pressure;Samples;Min_cycle;Max_cycle;Signal;HPM_P1;HPM_P2
2021/05/27 00:00:23;;;;;;;;;;;27.20;99.90;;;;;;1870540;75;20200;-89
2021/05/27 00:02:57;;;;;;;;;;;27.20;99.90;;;;;;1866213;75;20185;-90
2021/05/27 00:05:33;;;;;;;;;;;27.20;99.90;;;;;;1869453;76;20236;-90
2021/05/27 00:07:59;;;;;;;;;;;27.30;99.90;;;;;;1872408;76;20143;-89
2021/05/27 00:10:30;;;;;;;;;;;27.30;99.90;;;;;;1852729;76;20169;-90
2021/05/27 00:13:00;;;;;;;;;;;27.30;99.90;;;;;;1832241;77;20178;-88
2021/05/27 00:15:32;;;;;;;;;;;27.30;99.90;;;;;;1849367;76;20249;-90
2021/05/27 00:18:04;;;;;;;;;;;27.30;99.90;;;;;;1830864;77;20406;-88
2021/05/27 00:20:39;;;;;;;;;;;27.40;99.90;;;;;;1827791;77;20193;-91
2021/05/27 00:23:29;;;;;;;;;;;27.40;99.90;;;;;;1838052;77;20210;-87
2021/05/27 00:25:59;;;;;;;;;;;27.50;99.90;;;;;;1836448;77;20185;-88
2021/05/27 00:28:29;;;;;;;;;;;27.50;99.90;;;;;;1845166;77;20203;-86
2021/05/27 00:30:59;;;;;;;;;;;27.60;99.90;;;;;;1838340;77;20172;-88
2021/05/27 00:33:28;;;;;;;;;;;27.60;99.90;;;;;;1842037;77;20224;-86
2021/05/27 00:35:59;;;;;;;;;;;27.70;99.90;;;;;;1840091;77;20177;-88
2021/05/27 00:38:30;;;;;;;;;;;27.70;99.90;;;;;;1841774;77;20206;-86
2021/05/27 00:41:00;;;;;;;;;;;27.70;99.90;;;;;;1826300;77;20488;-87
2021/05/27 00:43:31;;;;;;;;;;;27.80;99.90;;;;;;1835358;77;20206;-87
2021/05/27 00:46:06;;;;;;;;;;;27.90;99.90;;;;;;1852235;77;20191;-87
2021/05/27 00:49:18;;;;;;;;;;;27.90;99.90;;;;;;1838809;77;20225;-87
2021/05/27 00:51:07;;;;;;;;;;;28.00;99.90;;;;;;1844014;77;20153;-86
2021/05/27 00:53:37;;;;;;;;;;;28.00;99.90;;;;;;1838897;77;20196;-87
2021/05/27 00:56:06;;;;;;;;;;;28.10;99.90;;;;;;1837098;77;20220;-87
2021/05/27 00:58:37;;;;;;;;;;;28.10;99.90;;;;;;1838795;77;20198;-86
2021/05/27 01:01:10;;;;;;;;;;;28.20;99.90;;;;;;1844537;77;20605;-87
2021/05/27 01:03:43;;;;;;;;;;;28.20;99.90;;;;;;1840320;77;20196;-87
2021/05/27 01:06:15;;;;;;;;;;;28.30;99.90;;;;;;1839309;77;20136;-87
2021/05/27 01:08:52;;;;;;;;;;;28.40;99.90;;;;;;1848768;77;20197;-88
2021/05/27 01:11:24;;;;;;;;;;;28.50;99.90;;;;;;1837760;77;20140;-87
2021/05/27 01:13:56;;;;;;;;;;;28.60;99.90;;;;;;1829879;77;20193;-87
2021/05/27 01:16:26;;;;;;;;;;;28.60;99.90;;;;;;1829512;77;20182;-87
2021/05/27 01:18:56;;;;;;;;;;;28.70;99.90;;;;;;1845065;77;20207;-87
2021/05/27 01:21:26;;;;;;;;;;;28.80;99.90;;;;;;1834429;77;20190;-88
2021/05/27 01:23:55;;;;;;;;;;;28.90;99.80;;;;;;1833150;77;20193;-88
2021/05/27 01:26:30;;;;;;;;;;;29.00;99.60;;;;;;1847987;77;20469;-87
2021/05/27 01:28:59;;;;;;;;;;;29.10;99.40;;;;;;1831431;77;20135;-87
2021/05/27 01:31:29;;;;;;;;;;;29.20;99.40;;;;;;1850991;77;20273;-87
2021/05/27 01:33:58;;;;;;;;;;;29.30;98.80;;;;;;1830680;77;20204;-87
2021/05/27 01:36:28;;;;;;;;;;;29.40;98.80;;;;;;1855625;77;20219;-88
2021/05/27 01:38:58;;;;;;;;;;;29.60;97.80;;;;;;1831535;77;20205;-87
2021/05/27 01:41:33;;;;;;;;;;;29.60;97.40;;;;;;1831453;77;20201;-88
2021/05/27 01:44:06;;;;;;;;;;;29.70;97.20;;;;;;1821886;79;20186;-88
2021/05/27 01:46:36;;;;;;;;;;;29.80;97.10;;;;;;1839077;78;20198;-88
2021/05/27 01:49:06;;;;;;;;;;;29.90;95.80;;;;;;1839815;78;20229;-88
2021/05/27 01:51:38;;;;;;;;;;;29.90;95.30;;;;;;1816790;79;20204;-89
2021/05/27 01:54:07;;;;;;;;;;;30.00;96.00;;;;;;1812631;78;20194;-78
2021/05/27 01:56:38;;;;;;;;;;;30.10;95.20;;;;;;1810194;77;20268;-77
2021/05/27 01:59:08;;;;;;;;;;;30.10;95.20;;;;;;1826408;77;20159;-79
2021/05/27 02:01:37;;;;;;;;;;;30.10;94.80;;;;;;1819559;78;20145;-80
2021/05/27 02:04:09;;;;;;;;;;;30.20;94.60;;;;;;1831431;78;20185;-78
2021/05/27 02:06:38;;;;;;;;;;;30.30;94.60;;;;;;1836623;78;20203;-78
2021/05/27 02:09:09;;;;;;;;;;;30.30;94.60;;;;;;1879751;76;20186;-78
2021/05/27 02:11:40;;;;;;;;;;;30.30;93.60;;;;;;1848690;76;20481;-78
2021/05/27 02:14:11;;;;;;;;;;;30.40;94.50;;;;;;1846136;76;20159;-77
2021/05/27 02:16:42;;;;;;;;;;;30.30;94.00;;;;;;1831646;76;20594;-78
2021/05/27 02:19:12;;;;;;;;;;;30.30;95.30;;;;;;1817675;78;20184;-79
2021/05/27 02:21:42;;;;;;;;;;;30.30;95.00;;;;;;1827703;76;20208;-79
2021/05/27 02:24:12;;;;;;;;;;;30.30;94.10;;;;;;1847952;78;20508;-79
2021/05/27 02:26:42;;;;;;;;;;;30.30;94.20;;;;;;1831229;76;20196;-80
2021/05/27 02:29:12;;;;;;;;;;;30.30;94.40;;;;;;1847062;76;20347;-80
2021/05/27 02:31:42;;;;;;;;;;;30.20;94.50;;;;;;1840313;77;20204;-80
2021/05/27 02:34:12;;;;;;;;;;;30.20;94.30;;;;;;1854032;77;20208;-79
2021/05/27 02:36:41;;;;;;;;;;;30.20;94.30;;;;;;1853377;76;20255;-80
2021/05/27 02:39:11;;;;;;;;;;;30.10;94.00;;;;;;1851460;76;20422;-80
2021/05/27 02:41:41;;;;;;;;;;;30.10;94.40;;;;;;1853983;76;20150;-80
2021/05/27 02:44:11;;;;;;;;;;;30.00;94.40;;;;;;1831606;76;20584;-79
2021/05/27 02:46:44;;;;;;;;;;;30.00;94.20;;;;;;1843053;76;20180;-80
2021/05/27 02:49:13;;;;;;;;;;;30.00;94.00;;;;;;1851876;77;20153;-79
2021/05/27 02:51:43;;;;;;;;;;;30.00;93.80;;;;;;1854536;76;20538;-77
2021/05/27 02:54:13;;;;;;;;;;;30.00;94.10;;;;;;1866783;76;20208;-78
2021/05/27 02:56:43;;;;;;;;;;;30.10;94.70;;;;;;1845818;76;20195;-77
2021/05/27 02:59:13;;;;;;;;;;;30.10;94.60;;;;;;1860570;76;20441;-78
2021/05/27 03:01:43;;;;;;;;;;;30.30;94.20;;;;;;1862052;75;20220;-77
2021/05/27 03:04:12;;;;;;;;;;;30.40;94.40;;;;;;1844120;76;20478;-77
2021/05/27 03:06:42;;;;;;;;;;;30.50;93.70;;;;;;1871900;76;20185;-77
2021/05/27 03:09:12;;;;;;;;;;;30.50;93.70;;;;;;1855381;75;20224;-78
2021/05/27 03:11:41;;;;;;;;;;;30.60;93.40;;;;;;1867574;76;20204;-79
2021/05/27 03:14:12;;;;;;;;;;;30.60;94.00;;;;;;1884619;76;20219;-80
2021/05/27 03:16:41;;;;;;;;;;;30.70;93.10;;;;;;1857113;75;20566;-80
2021/05/27 03:19:11;;;;;;;;;;;30.60;92.80;;;;;;1862850;77;20232;-80
2021/05/27 03:21:41;;;;;;;;;;;30.60;92.50;;;;;;1891516;76;20171;-79
2021/05/27 03:24:11;;;;;;;;;;;30.60;92.50;;;;;;1860329;77;20216;-79
2021/05/27 03:26:41;;;;;;;;;;;30.60;92.90;;;;;;1862193;76;20183;-80
2021/05/27 03:29:13;;;;;;;;;;;30.60;92.80;;;;;;1857643;76;20211;-79
2021/05/27 03:31:41;;;;;;;;;;;30.60;92.40;;;;;;1865515;76;20190;-79
2021/05/27 03:34:11;;;;;;;;;;;30.70;92.60;;;;;;1864605;76;20211;-79
2021/05/27 03:36:41;;;;;;;;;;;30.80;92.60;;;;;;1863941;76;20165;-79
2021/05/27 03:39:11;;;;;;;;;;;31.00;92.70;;;;;;1865092;76;20180;-79
2021/05/27 03:41:41;;;;;;;;;;;31.10;92.70;;;;;;1859480;75;20489;-79
2021/05/27 03:44:11;;;;;;;;;;;31.30;92.10;;;;;;1869876;76;20556;-79
2021/05/27 03:46:42;;;;;;;;;;;31.50;90.70;;;;;;1871836;76;20150;-77
2021/05/27 03:49:12;;;;;;;;;;;31.70;91.70;;;;;;1859384;76;20221;-79
2021/05/27 03:51:42;;;;;;;;;;;31.80;91.10;;;;;;1859603;76;20184;-78
2021/05/27 03:54:12;;;;;;;;;;;32.10;91.20;;;;;;1867041;76;20205;-79
2021/05/27 03:56:42;;;;;;;;;;;32.20;90.10;;;;;;1871861;76;20312;-79
2021/05/27 04:01:43;;;;;;;;;;;32.40;90.70;;;;;;1867945;75;20228;-79
2021/05/27 04:09:15;;;;;;;;;;;31.90;90.80;;;;;;1866932;75;20199;-78
2021/05/27 04:11:45;;;;;;;;;;;31.70;91.00;;;;;;1873953;75;20149;-78
2021/05/27 04:14:15;;;;;;;;;;;31.50;91.30;;;;;;1871661;75;20192;-78
2021/05/27 04:16:45;;;;;;;;;;;31.30;91.50;;;;;;1866370;76;20497;-79
2021/05/27 04:19:15;;;;;;;;;;;31.10;91.70;;;;;;1873552;76;20165;-78
2021/05/27 04:21:45;;;;;;;;;;;31.00;92.00;;;;;;1872035;76;20245;-78
2021/05/27 04:24:15;;;;;;;;;;;30.90;92.30;;;;;;1865197;76;20182;-79
2021/05/27 04:26:45;;;;;;;;;;;30.80;92.50;;;;;;1865549;75;20189;-79
2021/05/27 04:29:15;;;;;;;;;;;30.80;92.60;;;;;;1866880;75;20956;-78
2021/05/27 04:31:45;;;;;;;;;;;30.80;92.60;;;;;;1866643;76;20211;-78
2021/05/27 04:34:15;;;;;;;;;;;30.80;92.70;;;;;;1861743;76;20304;-78
2021/05/27 04:36:45;;;;;;;;;;;30.90;92.50;;;;;;1864353;76;20191;-77
2021/05/27 04:39:15;;;;;;;;;;;31.10;92.70;;;;;;1873213;76;20220;-78
2021/05/27 04:41:45;;;;;;;;;;;31.30;93.10;;;;;;1873632;75;20602;-78
2021/05/27 04:44:14;;;;;;;;;;;31.40;92.20;;;;;;1876824;75;20118;-78
2021/05/27 04:46:45;;;;;;;;;;;31.40;91.90;;;;;;1860362;75;20145;-77
2021/05/27 04:49:14;;;;;;;;;;;31.40;91.40;;;;;;1861251;76;20154;-77
2021/05/27 04:51:44;;;;;;;;;;;31.40;91.50;;;;;;1868811;76;20189;-78
2021/05/27 04:54:14;;;;;;;;;;;31.30;91.50;;;;;;1869593;75;20159;-78
2021/05/27 04:56:44;;;;;;;;;;;31.30;91.50;;;;;;1863466;75;20256;-78
2021/05/27 04:59:14;;;;;;;;;;;31.20;91.80;;;;;;1862171;75;20251;-78
2021/05/27 05:01:44;;;;;;;;;;;31.10;91.80;;;;;;1857666;76;20505;-81
2021/05/27 05:04:14;;;;;;;;;;;31.00;91.70;;;;;;1868631;75;20527;-80
2021/05/27 05:06:49;;;;;;;;;;;30.90;92.10;;;;;;1872058;76;20190;-80
2021/05/27 05:09:18;;;;;;;;;;;30.90;92.30;;;;;;1851009;76;20237;-80
2021/05/27 05:11:49;;;;;;;;;;;30.90;92.70;;;;;;1864849;76;20199;-79
2021/05/27 05:14:19;;;;;;;;;;;31.00;92.30;;;;;;1868564;76;20210;-81
2021/05/27 05:16:48;;;;;;;;;;;31.20;92.10;;;;;;1871598;76;20259;-82
2021/05/27 05:19:18;;;;;;;;;;;31.40;91.60;;;;;;1854381;76;20536;-80
2021/05/27 05:21:48;;;;;;;;;;;31.70;91.40;;;;;;1867682;76;20195;-80
2021/05/27 05:24:18;;;;;;;;;;;32.00;90.90;;;;;;1870463;76;20154;-80
2021/05/27 05:26:48;;;;;;;;;;;32.20;89.90;;;;;;1862245;75;20162;-79
2021/05/27 05:29:19;;;;;;;;;;;32.30;89.90;;;;;;1859135;75;20559;-80
2021/05/27 05:31:48;;;;;;;;;;;32.40;90.00;;;;;;1825004;77;20219;-78
2021/05/27 05:34:19;;;;;;;;;;;32.60;89.40;;;;;;1831862;77;20486;-78
2021/05/27 05:36:48;;;;;;;;;;;32.70;88.90;;;;;;1838319;77;20180;-78
2021/05/27 05:39:18;;;;;;;;;;;32.80;87.80;;;;;;1837782;77;20167;-78
2021/05/27 05:41:48;;;;;;;;;;;32.70;88.30;;;;;;1810812;77;20196;-78
2021/05/27 05:44:18;;;;;;;;;;;32.60;87.90;;;;;;1822068;77;20562;-78
2021/05/27 05:46:48;;;;;;;;;;;32.60;89.30;;;;;;1828311;77;20160;-78
2021/05/27 05:49:18;;;;;;;;;;;32.50;88.80;;;;;;1829392;77;20149;-78
2021/05/27 05:51:48;;;;;;;;;;;32.40;89.20;;;;;;1832022;77;20144;-79
2021/05/27 05:54:18;;;;;;;;;;;32.20;89.50;;;;;;1803569;78;20683;-78
2021/05/27 05:56:47;;;;;;;;;;;32.20;89.50;;;;;;1823802;77;20180;-79
2021/05/27 05:59:17;;;;;;;;;;;32.10;90.00;;;;;;1825119;78;20135;-79
2021/05/27 06:01:48;;;;;;;;;;;32.00;89.70;;;;;;1821608;77;20328;-79
2021/05/27 06:04:18;;;;;;;;;;;32.00;90.10;;;;;;1821364;77;20488;-78
2021/05/27 06:06:47;;;;;;;;;;;32.10;89.80;;;;;;1821704;77;20522;-77
2021/05/27 06:09:18;;;;;;;;;;;32.20;88.90;;;;;;1813752;78;20185;-77
2021/05/27 06:11:48;;;;;;;;;;;32.40;90.30;;;;;;1816808;78;20196;-77
2021/05/27 06:14:17;;;;;;;;;;;32.60;87.60;;;;;;1831196;77;20148;-76
2021/05/27 06:16:47;;;;;;;;;;;32.60;87.20;;;;;;1851057;77;20804;-78
2021/05/27 06:19:17;;;;;;;;;;;32.60;88.70;;;;;;1846802;77;20133;-78
2021/05/27 06:21:47;;;;;;;;;;;32.60;89.50;;;;;;1826415;77;20212;-78
2021/05/27 06:24:17;;;;;;;;;;;32.60;88.70;;;;;;1853208;77;20160;-78
2021/05/27 06:26:47;;;;;;;;;;;32.40;88.80;;;;;;1830697;77;20121;-78
2021/05/27 06:29:16;;;;;;;;;;;32.40;89.50;;;;;;1844276;77;20221;-78
2021/05/27 06:31:48;;;;;;;;;;;32.40;88.90;;;;;;1851511;77;20157;-78
2021/05/27 06:34:17;;;;;;;;;;;32.30;88.00;;;;;;1835369;77;20153;-79
2021/05/27 06:36:47;;;;;;;;;;;32.30;87.70;;;;;;1828613;77;20208;-79
2021/05/27 06:39:17;;;;;;;;;;;32.30;88.90;;;;;;1832349;77;20134;-80
2021/05/27 06:41:47;;;;;;;;;;;32.30;87.60;;;;;;1825370;77;20131;-80
2021/05/27 06:44:16;;;;;;;;;;;32.30;89.00;;;;;;1838803;77;20285;-79
2021/05/27 06:46:46;;;;;;;;;;;32.30;90.50;;;;;;1847075;77;20149;-78
2021/05/27 06:49:16;;;;;;;;;;;32.20;90.70;;;;;;1846029;77;20231;-79
2021/05/27 06:51:46;;;;;;;;;;;32.00;90.70;;;;;;1846785;77;20193;-78
2021/05/27 06:54:16;;;;;;;;;;;31.80;90.80;;;;;;1834790;77;20214;-76
2021/05/27 06:56:45;;;;;;;;;;;31.60;91.20;;;;;;1846881;77;20177;-77
2021/05/27 06:59:15;;;;;;;;;;;31.40;92.50;;;;;;1788110;79;20263;-76
2021/05/27 07:01:45;;;;;;;;;;;31.00;93.30;;;;;;1804270;79;20314;-75
2021/05/27 07:04:16;;;;;;;;;;;30.70;94.60;;;;;;1795559;79;20190;-76
2021/05/27 07:06:46;;;;;;;;;;;30.20;94.70;;;;;;1771828;80;20210;-77
2021/05/27 07:09:16;;;;;;;;;;;29.80;95.80;;;;;;1770949;80;20197;-78
2021/05/27 07:11:46;;;;;;;;;;;29.50;95.70;;;;;;1745400;82;20218;-77
2021/05/27 07:14:16;;;;;;;;;;;29.20;96.70;;;;;;1750481;82;20276;-77
2021/05/27 07:16:46;;;;;;;;;;;29.00;96.80;;;;;;1757606;80;20243;-77
2021/05/27 07:19:16;;;;;;;;;;;28.80;97.60;;;;;;1752972;81;20193;-77
2021/05/27 07:21:45;;;;;;;;;;;28.70;99.40;;;;;;1778018;80;20246;-77
2021/05/27 07:24:15;;;;;;;;;;;28.70;97.90;;;;;;1773641;80;20464;-76
2021/05/27 07:26:45;;;;;;;;;;;28.50;97.80;;;;;;1756647;80;20279;-78
2021/05/27 07:29:14;;;;;;;;;;;28.30;98.40;;;;;;1771347;80;20232;-78
2021/05/27 07:31:44;;;;;;;;;;;28.20;98.40;;;;;;1768690;80;20181;-78
2021/05/27 07:34:14;;;;;;;;;;;28.20;98.00;;;;;;1755459;80;20278;-78
2021/05/27 07:36:45;;;;;;;;;;;28.30;98.80;;;;;;1775658;80;20166;-79
2021/05/27 07:39:15;;;;;;;;;;;28.30;98.90;;;;;;1774336;79;20243;-79
2021/05/27 07:41:45;;;;;;;;;;;28.30;99.20;;;;;;1760042;80;20241;-79
2021/05/27 07:44:15;;;;;;;;;;;28.30;99.80;;;;;;1762429;80;20210;-79
2021/05/27 07:46:45;;;;;;;;;;;28.20;99.80;;;;;;1774323;80;20217;-78
2021/05/27 07:49:15;;;;;;;;;;;28.20;99.90;;;;;;1771592;80;20201;-79
2021/05/27 07:51:47;;;;;;;;;;;28.20;99.90;;;;;;1773723;80;20211;-80
2021/05/27 07:54:17;;;;;;;;;;;28.20;99.90;;;;;;1773515;79;20173;-77
2021/05/27 07:56:47;;;;;;;;;;;28.30;99.90;;;;;;1745759;80;20218;-80
2021/05/27 07:59:16;;;;;;;;;;;28.30;99.90;;;;;;1743651;80;20214;-80
2021/05/27 08:01:47;;;;;;;;;;;28.30;99.90;;;;;;1748458;80;20219;-78
2021/05/27 08:04:18;;;;;;;;;;;28.50;99.90;;;;;;1763563;80;20177;-78
2021/05/27 08:06:48;;;;;;;;;;;28.70;99.30;;;;;;1797722;78;20276;-79
2021/05/27 08:09:18;;;;;;;;;;;28.80;98.50;;;;;;1763729;79;20217;-79
2021/05/27 08:11:48;;;;;;;;;;;28.90;99.10;;;;;;1765436;81;20538;-79
2021/05/27 08:14:18;;;;;;;;;;;29.10;99.20;;;;;;1757567;79;20563;-79
2021/05/27 08:16:48;;;;;;;;;;;29.20;98.80;;;;;;1792288;78;20443;-79
2021/05/27 08:19:18;;;;;;;;;;;29.40;99.30;;;;;;1790494;79;20192;-79
2021/05/27 08:21:48;;;;;;;;;;;29.60;98.40;;;;;;1785645;79;20221;-79
2021/05/27 08:24:18;;;;;;;;;;;29.70;97.50;;;;;;1800781;79;20200;-79
2021/05/27 08:26:48;;;;;;;;;;;29.80;97.20;;;;;;1796842;79;20281;-80
2021/05/27 08:29:18;;;;;;;;;;;29.90;97.00;;;;;;1774147;79;20168;-80
2021/05/27 08:31:48;;;;;;;;;;;30.00;96.90;;;;;;1808287;79;20165;-80
2021/05/27 08:34:19;;;;;;;;;;;30.10;96.90;;;;;;1785602;80;20163;-80
2021/05/27 08:36:54;;;;;;;;;;;30.20;96.80;;;;;;1794677;79;20496;-80
2021/05/27 08:39:30;;;;;;;;;;;30.30;96.80;;;;;;1800779;79;20194;-80
2021/05/27 08:42:01;;;;;;;;;;;30.50;97.00;;;;;;1827779;78;20231;-80
2021/05/27 08:44:31;;;;;;;;;;;30.60;96.60;;;;;;1778128;80;20288;-80
2021/05/27 08:47:02;;;;;;;;;;;30.80;95.60;;;;;;1770518;80;20503;-80
2021/05/27 08:49:33;;;;;;;;;;;30.90;95.60;;;;;;1749122;80;20278;-80
2021/05/27 08:52:03;;;;;;;;;;;31.00;95.60;;;;;;1754568;82;20441;-81
2021/05/27 08:54:33;;;;;;;;;;;31.10;95.10;;;;;;1772358;79;20161;-79
2021/05/27 08:57:04;;;;;;;;;;;31.10;95.30;;;;;;1782549;80;20567;-80
2021/05/27 08:59:34;;;;;;;;;;;31.20;94.70;;;;;;1781650;79;20477;-79
2021/05/27 09:02:06;;;;;;;;;;;31.20;94.30;;;;;;1780165;79;20226;-81
2021/05/27 09:04:38;;;;;;;;;;;31.20;95.40;;;;;;1788904;79;20218;-80
2021/05/27 09:07:08;;;;;;;;;;;31.10;94.90;;;;;;1781113;80;20625;-80
2021/05/27 09:09:38;;;;;;;;;;;31.00;95.20;;;;;;1779738;79;20221;-81
2021/05/27 09:12:14;;;;;;;;;;;31.00;94.60;;;;;;1758132;80;20233;-80
2021/05/27 09:14:41;;;;;;;;;;;30.80;94.60;;;;;;1794255;80;20178;-79
2021/05/27 09:17:11;;;;;;;;;;;30.80;95.20;;;;;;1824930;78;20219;-80
2021/05/27 09:19:41;;;;;;;;;;;30.70;94.70;;;;;;1785282;80;20139;-80
2021/05/27 09:22:13;;;;;;;;;;;30.70;94.90;;;;;;1799453;79;20216;-81
2021/05/27 09:24:45;;;;;;;;;;;30.60;94.90;;;;;;1759282;80;20184;-80
2021/05/27 09:27:15;;;;;;;;;;;30.60;95.00;;;;;;1761579;80;20213;-80
2021/05/27 09:29:46;;;;;;;;;;;30.60;95.20;;;;;;1736138;82;20899;-80
2021/05/27 09:32:20;;;;;;;;;;;30.60;95.40;;;;;;1746552;81;20200;-81
2021/05/27 09:34:54;;;;;;;;;;;30.50;95.20;;;;;;1798692;80;20170;-80
2021/05/27 09:37:26;;;;;;;;;;;30.50;95.70;;;;;;1792888;78;20239;-80
2021/05/27 09:39:57;;;;;;;;;;;30.50;95.70;;;;;;1785765;80;20210;-81
2021/05/27 09:42:27;;;;;;;;;;;30.50;95.80;;;;;;1783465;80;20421;-80
2021/05/27 09:44:59;;;;;;;;;;;30.40;96.10;;;;;;1771591;79;20235;-80
2021/05/27 09:47:32;;;;;;;;;;;30.40;95.90;;;;;;1782060;78;20473;-83
2021/05/27 09:50:03;;;;;;;;;;;30.40;95.80;;;;;;1761802;80;20235;-79
2021/05/27 09:52:34;;;;;;;;;;;30.40;95.20;;;;;;1790476;78;20194;-76
2021/05/27 09:55:06;;;;;;;;;;;30.30;95.50;;;;;;1756847;80;20250;-80
2021/05/27 09:57:36;;;;;;;;;;;30.40;95.80;;;;;;1789319;80;20216;-78
2021/05/27 10:00:07;;;;;;;;;;;30.40;96.00;;;;;;1790753;78;20174;-79
2021/05/27 10:02:37;;;;;;;;;;;30.40;96.30;;;;;;1787109;79;20201;-78
2021/05/27 10:05:08;;;;;;;;;;;30.30;96.30;;;;;;1795580;79;20174;-78
2021/05/27 10:07:39;;;;;;;;;;;30.30;96.30;;;;;;1784070;79;20240;-78
2021/05/27 10:10:11;;;;;;;;;;;30.30;96.20;;;;;;1765310;79;20394;-77
2021/05/27 10:12:42;;;;;;;;;;;30.30;96.40;;;;;;1787610;78;20218;-78
2021/05/27 10:15:13;;;;;;;;;;;30.20;92.80;;;;;;1798465;78;20270;-80
2021/05/27 10:17:46;;;;;;;;;;;30.00;92.80;;;;;;1759550;80;20534;-80
2021/05/27 10:20:16;;;;;;;;;;;29.70;91.70;;;;;;1762777;80;20435;-80
2021/05/27 10:22:46;;;;;;;;;;;29.40;91.90;;;;;;1794270;78;20178;-81
2021/05/27 10:25:17;;;;;;;;;;;29.20;92.00;;;;;;1792528;78;20446;-82
2021/05/27 10:27:47;;;;;;;;;;;29.00;92.50;;;;;;1834218;77;20237;-80
2021/05/27 10:30:21;;;;;;;;;;;28.70;93.10;;;;;;1840341;77;20529;-79
2021/05/27 10:32:52;;;;;;;;;;;28.50;93.80;;;;;;1831351;77;20204;-79
2021/05/27 10:35:22;;;;;;;;;;;28.40;94.70;;;;;;1835204;78;20136;-77
2021/05/27 10:37:52;;;;;;;;;;;28.30;94.90;;;;;;1826977;78;20128;-79
2021/05/27 10:40:23;;;;;;;;;;;28.20;95.50;;;;;;1836858;77;20125;-80
2021/05/27 10:42:54;;;;;;;;;;;28.10;95.70;;;;;;1828792;77;20633;-80
2021/05/27 10:45:25;;;;;;;;;;;28.10;96.30;;;;;;1835779;77;20222;-79
2021/05/27 10:47:55;;;;;;;;;;;28.00;96.30;;;;;;1830972;77;20125;-78
2021/05/27 10:50:28;;;;;;;;;;;28.00;96.50;;;;;;1762334;79;20216;-78
2021/05/27 10:53:02;;;;;;;;;;;27.90;96.50;;;;;;1760148;80;20216;-78
2021/05/27 10:55:34;;;;;;;;;;;27.90;96.40;;;;;;1835068;77;20249;-78
2021/05/27 10:58:04;;;;;;;;;;;27.90;96.30;;;;;;1823441;77;20160;-78
2021/05/27 11:00:37;;;;;;;;;;;27.90;96.70;;;;;;1826919;77;20623;-80
2021/05/27 11:03:08;;;;;;;;;;;27.70;96.70;;;;;;1824991;77;20176;-79
2021/05/27 11:05:38;;;;;;;;;;;27.60;97.30;;;;;;1825248;78;20180;-79
2021/05/27 11:08:09;;;;;;;;;;;27.60;96.80;;;;;;1818044;77;20217;-78
2021/05/27 11:10:39;;;;;;;;;;;27.60;96.80;;;;;;1769820;79;20170;-79
2021/05/27 11:13:09;;;;;;;;;;;27.60;97.00;;;;;;1782210;79;20309;-79
2021/05/27 11:15:40;;;;;;;;;;;27.60;97.40;;;;;;1780018;80;20241;-79
2021/05/27 11:18:10;;;;;;;;;;;27.70;97.50;;;;;;1780243;80;20249;-79
2021/05/27 11:20:41;;;;;;;;;;;27.70;98.10;;;;;;1769063;80;20198;-79
2021/05/27 11:23:15;;;;;;;;;;;27.70;97.70;;;;;;1782462;80;20248;-79
2021/05/27 11:25:43;;;;;;;;;;;27.60;98.00;;;;;;1778918;80;20198;-79
2021/05/27 11:28:16;;;;;;;;;;;27.60;98.10;;;;;;1776291;80;20186;-77
2021/05/27 11:30:52;;;;;;;;;;;27.60;98.20;;;;;;1778228;80;20166;-78
2021/05/27 11:33:19;;;;;;;;;;;27.60;98.40;;;;;;1777693;80;20140;-77
2021/05/27 11:35:50;;;;;;;;;;;27.50;98.50;;;;;;1776925;80;20142;-78
2021/05/27 11:38:21;;;;;;;;;;;27.50;98.60;;;;;;1775353;80;20263;-78
2021/05/27 11:40:53;;;;;;;;;;;27.60;98.50;;;;;;1747814;81;20204;-78
2021/05/27 11:43:24;;;;;;;;;;;27.60;98.60;;;;;;1748836;80;20260;-78
2021/05/27 11:45:55;;;;;;;;;;;27.60;98.70;;;;;;1820321;77;20322;-78
2021/05/27 11:48:35;;;;;;;;;;;27.50;98.70;;;;;;1815614;77;20188;-78
2021/05/27 11:50:57;;;;;;;;;;;27.50;98.60;;;;;;1826195;77;20180;-78
2021/05/27 11:53:29;;;;;;;;;;;27.40;98.60;;;;;;1808650;77;20238;-77
2021/05/27 11:55:59;;;;;;;;;;;27.40;98.70;;;;;;1823933;77;20620;-78
2021/05/27 11:58:30;;;;;;;;;;;27.40;98.60;;;;;;1816933;79;20569;-78
2021/05/27 12:01:01;;;;;;;;;;;27.40;98.80;;;;;;1818936;78;20125;-78
2021/05/27 12:03:31;;;;;;;;;;;27.40;98.50;;;;;;1833105;78;20218;-78
2021/05/27 12:06:03;;;;;;;;;;;27.30;98.50;;;;;;1849203;76;20206;-78
2021/05/27 12:08:34;;;;;;;;;;;27.30;98.70;;;;;;1823970;76;20141;-78
2021/05/27 12:11:04;;;;;;;;;;;27.30;98.50;;;;;;1846650;76;20196;-87
2021/05/27 12:13:34;;;;;;;;;;;27.30;98.60;;;;;;1839253;76;20197;-88
2021/05/27 12:16:04;;;;;;;;;;;27.30;98.70;;;;;;1803823;78;20244;-88
2021/05/27 12:21:35;;;;;;;;;;;27.30;98.20;;;;;;1863882;76;20210;-87
2021/05/27 12:24:05;;;;;;;;;;;27.20;98.00;;;;;;1884501;75;20152;-86
2021/05/27 12:26:45;;;;;;;;;;;27.20;98.10;;;;;;1877683;75;20524;-87
2021/05/27 12:29:16;;;;;;;;;;;27.10;98.20;;;;;;1882718;75;20239;-87
2021/05/27 12:31:46;;;;;;;;;;;27.20;98.30;;;;;;1875358;75;20159;-86
2021/05/27 12:34:16;;;;;;;;;;;27.20;98.30;;;;;;1895410;75;20203;-87
2021/05/27 12:36:47;;;;;;;;;;;27.20;98.30;;;;;;1895126;75;20228;-87
2021/05/27 12:39:20;;;;;;;;;;;27.30;98.30;;;;;;1884962;75;20205;-87
2021/05/27 12:41:51;;;;;;;;;;;27.30;98.20;;;;;;1868023;75;20200;-86
2021/05/27 12:44:40;;;;;;;;;;;27.40;98.30;;;;;;1881838;75;20188;-88
2021/05/27 12:47:09;;;;;;;;;;;27.40;98.70;;;;;;1893836;74;20169;-87
2021/05/27 12:49:39;;;;;;;;;;;27.40;98.70;;;;;;1876899;74;20201;-87
2021/05/27 12:52:09;;;;;;;;;;;27.40;98.50;;;;;;1879501;75;20147;-88
2021/05/27 12:54:39;;;;;;;;;;;27.40;98.30;;;;;;1880558;75;20206;-87
2021/05/27 12:57:12;;;;;;;;;;;27.40;98.40;;;;;;1877445;75;20156;-86
2021/05/27 12:59:42;;;;;;;;;;;27.40;98.60;;;;;;1891021;75;20201;-88
2021/05/27 13:02:13;;;;;;;;;;;27.50;98.60;;;;;;1885105;75;20153;-88
2021/05/27 13:04:43;;;;;;;;;;;27.50;98.20;;;;;;1889795;75;20151;-87
2021/05/27 13:07:14;;;;;;;;;;;27.40;98.30;;;;;;1877265;75;20191;-87
2021/05/27 13:09:45;;;;;;;;;;;27.40;98.30;;;;;;1872181;75;20228;-88
2021/05/27 13:12:16;;;;;;;;;;;27.40;98.50;;;;;;1882050;75;20266;-87
2021/05/27 13:14:54;;;;;;;;;;;27.40;98.50;;;;;;1909336;74;20146;-88
2021/05/27 13:17:24;;;;;;;;;;;27.40;97.60;;;;;;1912931;74;20239;-87
2021/05/27 13:22:39;;;;;;;;;;;27.20;97.70;;;;;;1919157;74;20238;-87
2021/05/27 13:25:11;;;;;;;;;;;27.10;97.70;;;;;;1932577;74;20152;-86
2021/05/27 13:27:53;;;;;;;;;;;27.10;97.40;;;;;;1891671;75;20215;-87
2021/05/27 13:32:53;;;;;;;;;;;27.10;97.40;;;;;;1879457;76;20285;-88
2021/05/27 13:35:24;;;;;;;;;;;27.10;97.50;;;;;;1871151;76;20134;-87
2021/05/27 13:37:56;;;;;;;;;;;27.10;97.80;;;;;;1872231;76;20240;-87
2021/05/27 13:40:27;;;;;;;;;;;27.10;98.00;;;;;;1882403;75;20206;-88
2021/05/27 13:42:59;;;;;;;;;;;27.10;98.00;;;;;;1894156;75;20140;-88
2021/05/27 13:45:30;;;;;;;;;;;27.00;98.20;;;;;;1879162;75;20271;-88
2021/05/27 13:48:00;;;;;;;;;;;27.00;98.50;;;;;;1881459;76;20504;-88
2021/05/27 13:50:35;;;;;;;;;;;26.90;98.60;;;;;;1873745;76;20121;-87
2021/05/27 13:53:08;;;;;;;;;;;26.90;98.70;;;;;;1876916;76;20194;-87
2021/05/27 13:55:57;;;;;;;;;;;26.90;99.10;;;;;;1867595;76;20618;-88
2021/05/27 13:58:10;;;;;;;;;;;26.90;98.90;;;;;;1866043;77;20184;-87
2021/05/27 14:00:40;;;;;;;;;;;27.00;98.90;;;;;;1868501;76;20606;-87
2021/05/27 14:03:11;;;;;;;;;;;27.00;98.70;;;;;;1872561;75;20161;-88
2021/05/27 14:05:41;;;;;;;;;;;27.00;98.80;;;;;;1875977;75;20226;-88
2021/05/27 14:08:12;;;;;;;;;;;27.00;98.70;;;;;;1871136;75;20174;-89
2021/05/27 14:10:42;;;;;;;;;;;27.00;98.60;;;;;;1871452;75;20225;-87
2021/05/27 14:13:11;;;;;;;;;;;27.00;98.40;;;;;;1874724;75;20206;-87
2021/05/27 14:15:42;;;;;;;;;;;27.00;98.50;;;;;;1878039;75;20187;-88
2021/05/27 14:18:13;;;;;;;;;;;27.00;98.70;;;;;;1849487;76;20234;-87
2021/05/27 14:20:42;;;;;;;;;;;27.00;98.80;;;;;;1875205;75;20297;-88
2021/05/27 14:23:12;;;;;;;;;;;27.00;98.70;;;;;;1904260;74;20238;-87
2021/05/27 14:25:43;;;;;;;;;;;27.00;98.80;;;;;;1907003;74;20228;-87
2021/05/27 14:28:14;;;;;;;;;;;27.00;98.50;;;;;;1899858;74;20176;-86
2021/05/27 14:30:44;;;;;;;;;;;27.10;98.30;;;;;;1908952;74;20428;-87
2021/05/27 14:33:14;;;;;;;;;;;27.10;98.50;;;;;;1903234;75;20126;-87
2021/05/27 14:35:44;;;;;;;;;;;27.00;98.50;;;;;;1907576;74;20117;-87
2021/05/27 14:38:14;;;;;;;;;;;27.00;98.50;;;;;;1907563;74;20126;-87
2021/05/27 14:40:44;;;;;;;;;;;27.00;98.40;;;;;;1887783;75;20150;-85
2021/05/27 14:43:16;;;;;;;;;;;27.00;98.50;;;;;;1907871;74;20122;-87
2021/05/27 14:45:46;;;;;;;;;;;27.10;98.50;;;;;;1906773;74;20173;-87
2021/05/27 14:48:16;;;;;;;;;;;27.10;98.10;;;;;;1906977;75;20138;-87
2021/05/27 14:50:46;;;;;;;;;;;27.10;98.10;;;;;;1914710;74;20297;-87